Time;durP1;ratioP1;P1;durP2;ratioP2;P2;SDS_P1;SDS_P2;PMS_P1;PMS_P2;Temp;Humidity;BMP_temperature;BMP_pressure;BME280_temperature;BME280_humidity;BME280_pressure;Samples;Min_cycle;Max_cycle;Signal;HPM_P1;HPM_P2
2023/06/10 00:02:16;;;;;;;7.13;4.55;;;;;;;19.64;87.27;94467.63;5072269;28;20186;-79
2023/06/10 00:04:42;;;;;;;9.40;4.97;;;;;;;19.58;87.25;94458.84;5071966;28;20201;-79
2023/06/10 00:07:08;;;;;;;8.82;5.00;;;;;;;19.44;87.53;94449.84;5071918;28;20174;-79
2023/06/10 00:09:37;;;;;;;6.43;4.78;;;;;;;19.52;88.06;94465.31;5070730;28;20292;-79
2023/06/10 00:12:07;;;;;;;12.88;5.05;;;;;;;19.50;87.76;94455.97;5070745;28;20209;-79
2023/06/10 00:14:33;;;;;;;6.97;4.50;;;;;;;19.37;87.64;94443.22;5070821;28;20668;-79
2023/06/10 00:16:59;;;;;;;7.97;5.22;;;;;;;19.42;87.03;94457.31;5070670;28;20173;-79
2023/06/10 00:19:25;;;;;;;5.03;4.07;;;;;;;19.38;87.44;94455.47;5070784;28;20174;-79
2023/06/10 00:21:52;;;;;;;6.50;4.03;;;;;;;19.25;87.51;94440.06;5071960;28;20174;-79
2023/06/10 00:24:18;;;;;;;7.88;4.30;;;;;;;19.27;87.59;94456.59;5071795;28;20178;-79
2023/06/10 00:26:44;;;;;;;6.15;4.72;;;;;;;19.29;87.89;94457.91;5071611;28;20181;-79
2023/06/10 00:29:10;;;;;;;8.15;4.50;;;;;;;19.01;88.78;94445.25;5071685;28;20194;-79
2023/06/10 00:31:36;;;;;;;4.78;4.28;;;;;;;19.09;88.79;94463.34;5071820;28;20219;-79
2023/06/10 00:34:02;;;;;;;8.00;5.72;;;;;;;18.98;89.30;94462.59;5071730;28;20170;-79
2023/06/10 00:36:28;;;;;;;15.15;6.70;;;;;;;19.00;89.47;94460.47;5070323;28;20174;-79
2023/06/10 00:38:53;;;;;;;8.00;6.03;;;;;;;19.00;89.70;94455.13;5071773;28;20166;-79
2023/06/10 00:41:19;;;;;;;8.98;6.57;;;;;;;18.99;90.14;94447.38;5071613;28;20170;-79
2023/06/10 00:43:45;;;;;;;10.17;7.00;;;;;;;18.82;90.64;94432.50;5070932;28;20410;-79
2023/06/10 00:46:12;;;;;;;8.40;6.65;;;;;;;18.87;90.48;94453.00;5071462;28;20251;-79
2023/06/10 00:48:38;;;;;;;25.30;16.95;;;;;;;18.63;91.55;94436.81;5070575;28;20433;-79
2023/06/10 00:51:05;;;;;;;22.33;11.70;;;;;;;18.81;91.20;94451.44;5071563;28;20544;-79
2023/06/10 00:53:30;;;;;;;23.80;16.42;;;;;;;18.93;91.24;94459.94;5071821;28;20644;-79
2023/06/10 00:55:56;;;;;;;16.75;10.13;;;;;;;18.93;91.14;94451.16;5071297;28;20242;-79
2023/06/10 00:58:23;;;;;;;12.82;8.02;;;;;;;19.08;90.78;94457.22;5071297;28;20214;-79
2023/06/10 01:00:49;;;;;;;20.70;13.88;;;;;;;18.82;90.96;94424.50;5071126;28;20178;-79
2023/06/10 01:03:17;;;;;;;15.68;9.65;;;;;;;19.05;91.12;94451.63;5071313;28;20178;-79
2023/06/10 01:05:43;;;;;;;17.35;12.70;;;;;;;19.06;91.09;94450.56;5069975;28;20607;-79
2023/06/10 01:08:33;;;;;;;25.73;12.35;;;;;;;18.97;90.82;94433.50;5071164;28;20170;-79
2023/06/10 01:11:00;;;;;;;12.20;7.38;;;;;;;19.16;90.40;94466.53;5070784;28;20170;-79
2023/06/10 01:13:28;;;;;;;11.30;7.15;;;;;;;19.15;90.20;94465.72;5069513;28;20178;-79
2023/06/10 01:15:57;;;;;;;13.90;8.85;;;;;;;19.09;90.56;94458.03;5071422;28;20174;-79
2023/06/10 01:18:23;;;;;;;12.15;7.28;;;;;;;19.20;90.54;94470.22;5071143;28;20178;-79
2023/06/10 01:20:49;;;;;;;13.18;6.80;;;;;;;19.11;90.08;94456.66;5070969;28;20568;-79
2023/06/10 01:23:15;;;;;;;18.25;7.65;;;;;;;19.20;90.17;94465.69;5071080;28;20174;-79
2023/06/10 01:25:59;;;;;;;8.95;6.78;;;;;;;19.17;90.09;94463.59;5071164;28;20193;-79
2023/06/10 01:28:31;;;;;;;11.93;7.78;;;;;;;19.12;90.16;94460.91;5070838;28;20701;-79
2023/06/10 01:31:17;;;;;;;7.90;6.03;;;;;;;19.18;89.97;94467.06;5071546;28;20257;-79
2023/06/10 01:33:51;;;;;;;13.23;6.28;;;;;;;19.16;90.07;94463.84;5070423;28;20219;-79
2023/06/10 01:36:18;;;;;;;15.75;7.82;;;;;;;19.17;90.05;94463.59;5069942;28;20217;-79
2023/06/10 01:38:45;;;;;;;9.45;6.65;;;;;;;19.15;89.99;94448.91;5070975;28;20623;-79
2023/06/10 01:41:13;;;;;;;8.07;6.30;;;;;;;19.16;90.43;94459.31;5069494;28;20212;-79
2023/06/10 01:43:38;;;;;;;6.18;4.85;;;;;;;19.18;90.09;94451.84;5070946;28;20163;-79
2023/06/10 01:46:04;;;;;;;9.13;6.15;;;;;;;19.20;89.79;94451.53;5071645;28;20680;-79
2023/06/10 01:48:30;;;;;;;11.65;6.40;;;;;;;19.13;89.86;94443.84;5070790;28;20269;-79
2023/06/10 01:50:58;;;;;;;8.20;6.18;;;;;;;19.14;89.85;94440.09;5070835;28;20175;-79
2023/06/10 01:53:24;;;;;;;6.78;5.18;;;;;;;19.07;90.01;94434.28;5070720;28;20171;-79
2023/06/10 01:55:49;;;;;;;13.15;6.15;;;;;;;19.14;90.01;94432.09;5070765;28;20265;-79
2023/06/10 01:58:15;;;;;;;7.38;5.70;;;;;;;19.15;90.35;94431.03;5070483;28;20708;-79
2023/06/10 02:00:40;;;;;;;11.70;6.63;;;;;;;19.10;90.63;94438.28;5070067;28;20929;-79
2023/06/10 02:03:06;;;;;;;8.43;5.53;;;;;;;19.02;90.90;94423.63;5069372;28;20405;-79
2023/06/10 02:05:31;;;;;;;6.43;5.57;;;;;;;19.13;90.52;94424.34;5070597;28;20608;-79
2023/06/10 02:07:57;;;;;;;10.40;5.32;;;;;;;19.11;90.46;94418.53;5070765;28;20185;-79
2023/06/10 02:10:23;;;;;;;11.73;5.72;;;;;;;19.25;90.14;94440.84;5070864;28;20193;-80
2023/06/10 02:12:48;;;;;;;8.95;5.97;;;;;;;19.16;89.92;94419.28;5071041;28;20250;-80
2023/06/10 02:15:13;;;;;;;10.15;5.80;;;;;;;19.27;90.24;94432.59;5069480;28;20214;-79
2023/06/10 02:17:39;;;;;;;7.82;5.25;;;;;;;19.30;90.00;94432.81;5070200;28;20547;-80
2023/06/10 02:20:07;;;;;;;7.80;5.07;;;;;;;19.22;90.05;94412.03;5070646;28;20190;-80
2023/06/10 02:22:32;;;;;;;7.97;5.50;;;;;;;19.30;90.02;94419.47;5069923;28;20166;-80
2023/06/10 02:24:58;;;;;;;11.63;6.15;;;;;;;19.29;90.44;94411.72;5073830;28;20162;-80
2023/06/10 02:27:23;;;;;;;12.13;5.30;;;;;;;19.25;90.24;94406.16;5073004;28;20642;-80
2023/06/10 02:29:48;;;;;;;8.52;5.80;;;;;;;19.41;90.16;94422.88;5073719;28;20193;-80
2023/06/10 02:32:14;;;;;;;7.93;5.47;;;;;;;19.41;90.10;94418.34;5073888;28;20329;-80
2023/06/10 02:34:39;;;;;;;9.05;5.63;;;;;;;19.35;89.93;94414.13;5074085;28;20258;-80
2023/06/10 02:37:05;;;;;;;10.65;7.15;;;;;;;19.28;90.03;94392.28;5073955;28;20175;-80
2023/06/10 02:39:30;;;;;;;15.15;10.00;;;;;;;19.42;89.95;94413.81;5073717;28;20220;-80
2023/06/10 02:41:56;;;;;;;12.75;9.93;;;;;;;19.23;89.85;94390.41;5074030;28;20166;-80
2023/06/10 02:44:21;;;;;;;27.83;16.90;;;;;;;19.31;90.08;94398.91;5074299;28;20170;-80
2023/06/10 02:46:46;;;;;;;11.30;7.40;;;;;;;19.25;89.97;94384.81;5074658;28;20155;-80
2023/06/10 02:49:12;;;;;;;20.50;13.00;;;;;;;19.28;89.71;94391.47;5074919;28;20195;-80
2023/06/10 02:51:38;;;;;;;15.02;10.50;;;;;;;19.24;90.09;94385.88;5072526;28;20265;-80
2023/06/10 02:54:04;;;;;;;14.60;9.02;;;;;;;19.39;90.24;94403.66;5073373;28;20624;-80
2023/06/10 02:56:30;;;;;;;17.02;10.18;;;;;;;19.36;90.31;94390.91;5073632;28;20217;-79
2023/06/10 02:58:56;;;;;;;14.13;8.07;;;;;;;19.41;90.80;94405.00;5072413;28;20625;-79
2023/06/10 03:01:21;;;;;;;14.73;8.90;;;;;;;19.42;90.98;94397.78;5073497;28;20163;-79
2023/06/10 03:03:46;;;;;;;13.23;6.88;;;;;;;19.33;91.16;94388.75;5073552;28;20166;-79
2023/06/10 03:06:13;;;;;;;10.95;6.90;;;;;;;19.44;91.48;94415.13;5073072;28;20166;-80
2023/06/10 03:08:40;;;;;;;13.00;6.80;;;;;;;19.42;91.85;94417.28;5073581;28;20194;-80
2023/06/10 03:11:05;;;;;;;16.10;9.40;;;;;;;19.31;92.50;94405.06;5073207;28;20239;-79
2023/06/10 03:13:31;;;;;;;21.33;10.95;;;;;;;19.44;93.04;94417.00;5073041;28;20174;-79
2023/06/10 03:15:56;;;;;;;24.80;11.80;;;;;;;19.44;92.75;94422.34;5073375;28;20604;-80
2023/06/10 03:18:26;;;;;;;18.63;10.18;;;;;;;19.44;92.65;94428.47;5073756;28;20589;-79
2023/06/10 03:20:52;;;;;;;20.40;11.00;;;;;;;19.42;92.64;94419.94;5072059;28;20281;-80
2023/06/10 03:23:18;;;;;;;10.73;7.75;;;;;;;19.44;92.25;94430.34;5072898;28;20673;-80
2023/06/10 03:25:44;;;;;;;12.07;6.95;;;;;;;19.44;92.59;94436.50;5073000;28;20167;-80
2023/06/10 03:28:10;;;;;;;9.00;6.35;;;;;;;19.44;92.07;94439.16;5071436;28;20221;-80
2023/06/10 03:30:35;;;;;;;11.30;6.90;;;;;;;19.46;91.82;94444.22;5072782;28;20196;-80
2023/06/10 03:33:01;;;;;;;10.20;6.43;;;;;;;19.37;92.00;94427.19;5071660;28;20182;-80
2023/06/10 03:35:26;;;;;;;7.75;6.63;;;;;;;19.40;92.36;94438.09;5072513;28;20182;-79
2023/06/10 03:37:52;;;;;;;8.73;6.43;;;;;;;19.42;92.57;94443.97;5072653;28;20177;-80
2023/06/10 03:40:17;;;;;;;8.30;6.30;;;;;;;19.31;92.39;94422.94;5072604;28;20194;-80
2023/06/10 03:42:43;;;;;;;9.95;5.85;;;;;;;19.34;92.37;94444.56;5072563;28;20177;-79
2023/06/10 03:45:09;;;;;;;8.63;5.95;;;;;;;19.36;93.14;94436.28;5073378;28;20178;-79
2023/06/10 03:47:36;;;;;;;9.70;6.13;;;;;;;19.37;93.42;94443.22;5072486;28;20181;-79
2023/06/10 03:50:03;;;;;;;14.18;7.03;;;;;;;19.32;93.68;94435.22;5072369;28;20220;-79
2023/06/10 03:52:29;;;;;;;10.13;6.47;;;;;;;19.35;93.43;94434.66;5071052;28;20180;-80
2023/06/10 03:54:54;;;;;;;10.02;5.97;;;;;;;19.20;93.58;94420.31;5071088;28;20187;-79
2023/06/10 03:57:20;;;;;;;10.05;6.10;;;;;;;19.26;93.26;94429.13;5072374;28;20182;-79
2023/06/10 03:59:45;;;;;;;10.35;6.35;;;;;;;19.15;93.98;94415.03;5071791;28;20292;-79
2023/06/10 04:02:11;;;;;;;7.20;5.75;;;;;;;19.18;94.03;94424.34;5072129;28;20182;-79
2023/06/10 04:04:37;;;;;;;7.53;6.10;;;;;;;19.26;93.81;94437.13;5072357;28;20182;-79
2023/06/10 04:07:03;;;;;;;7.95;5.30;;;;;;;18.97;94.07;94393.50;5071958;28;20213;-79
2023/06/10 04:09:29;;;;;;;9.27;6.95;;;;;;;19.08;94.34;94435.06;5070192;28;20800;-79
2023/06/10 04:11:54;;;;;;;9.73;6.65;;;;;;;19.03;94.89;94427.88;5072356;28;20170;-79
2023/06/10 04:14:19;;;;;;;7.88;5.18;;;;;;;19.10;94.99;94436.41;5072189;28;20201;-79
2023/06/10 04:16:45;;;;;;;7.75;5.72;;;;;;;19.16;94.83;94442.50;5072201;28;20174;-80
2023/06/10 04:19:10;;;;;;;10.13;6.90;;;;;;;19.11;95.00;94431.88;5071654;28;20163;-80
2023/06/10 04:21:36;;;;;;;9.10;6.38;;;;;;;19.22;95.09;94444.06;5072018;28;20182;-80
2023/06/10 04:24:02;;;;;;;9.45;6.00;;;;;;;19.17;94.84;94426.22;5071752;28;20307;-79
2023/06/10 04:26:27;;;;;;;9.45;5.22;;;;;;;19.35;94.61;94440.81;5071782;28;20166;-80
2023/06/10 04:28:53;;;;;;;6.82;5.68;;;;;;;19.28;93.93;94431.50;5071802;28;20578;-79
2023/06/10 04:31:19;;;;;;;8.18;5.70;;;;;;;19.34;93.79;94449.09;5071680;28;20266;-80
2023/06/10 04:33:44;;;;;;;7.25;5.32;;;;;;;19.28;94.13;94428.84;5072144;28;20174;-79
2023/06/10 04:36:10;;;;;;;8.05;5.45;;;;;;;19.41;94.14;94444.25;5072280;28;20188;-80
2023/06/10 04:38:35;;;;;;;9.55;6.10;;;;;;;19.40;93.98;94438.09;5071873;28;20189;-80
2023/06/10 04:41:01;;;;;;;14.10;5.93;;;;;;;19.25;94.57;94406.16;5071609;28;20178;-79
2023/06/10 04:43:28;;;;;;;6.80;5.90;;;;;;;19.36;94.54;94422.94;5071397;28;20186;-80
2023/06/10 04:45:54;;;;;;;8.77;5.65;;;;;;;19.55;94.38;94447.91;5070811;28;20213;-79
2023/06/10 04:48:19;;;;;;;7.63;5.15;;;;;;;19.56;93.98;94431.63;5070844;28;20202;-79
2023/06/10 04:50:45;;;;;;;8.70;6.20;;;;;;;19.53;93.79;94413.50;5071501;28;20533;-79
2023/06/10 04:53:10;;;;;;;9.35;5.95;;;;;;;19.80;92.68;94449.66;5071495;28;20179;-79
2023/06/10 04:55:36;;;;;;;9.68;5.70;;;;;;;19.77;93.02;94439.50;5071497;28;20184;-80
2023/06/10 04:58:01;;;;;;;8.77;6.05;;;;;;;19.69;91.95;94422.22;5071012;28;20170;-79
2023/06/10 05:00:27;;;;;;;6.25;5.35;;;;;;;19.89;91.71;94443.41;5071392;28;20664;-80
2023/06/10 05:02:53;;;;;;;7.43;6.10;;;;;;;19.66;90.95;94422.75;5071865;28;20227;-80
2023/06/10 05:05:18;;;;;;;10.45;6.22;;;;;;;19.57;91.87;94430.56;5070305;28;20170;-80
2023/06/10 05:07:44;;;;;;;9.07;5.55;;;;;;;19.54;92.59;94449.81;5071253;28;20167;-80
2023/06/10 05:10:10;;;;;;;8.05;5.38;;;;;;;19.51;92.76;94423.66;5071139;28;20263;-80
2023/06/10 05:12:35;;;;;;;8.77;5.63;;;;;;;19.72;92.42;94447.56;5071210;28;20177;-80
2023/06/10 05:15:01;;;;;;;12.75;7.95;;;;;;;19.36;91.37;94406.91;5071534;28;20167;-79
2023/06/10 05:17:28;;;;;;;12.13;7.68;;;;;;;19.63;92.19;94443.88;5072004;28;20519;-79
2023/06/10 05:19:53;;;;;;;23.13;15.95;;;;;;;19.55;92.09;94437.25;5071794;28;20174;-80
2023/06/10 05:22:19;;;;;;;22.90;17.15;;;;;;;19.45;91.73;94447.97;5071209;28;20240;-79
2023/06/10 05:24:44;;;;;;;19.90;16.23;;;;;;;19.43;92.13;94431.41;5071109;28;20170;-80
2023/06/10 05:27:10;;;;;;;20.42;14.05;;;;;;;19.28;93.39;94423.50;5069816;28;20174;-80
2023/06/10 05:29:35;;;;;;;28.92;20.85;;;;;;;;;;5070784;28;20202;-80
2023/06/10 05:32:03;;;;;;;39.03;30.02;;;;;;;19.42;93.42;94421.81;5071040;28;20563;-80
2023/06/10 05:34:31;;;;;;;44.60;31.58;;;;;;;19.76;93.58;94445.94;5071015;28;20178;-80
2023/06/10 05:36:57;;;;;;;40.13;29.08;;;;;;;19.82;92.72;94442.13;5070928;28;20169;-80
2023/06/10 05:39:22;;;;;;;33.78;21.63;;;;;;;20.04;92.16;94455.06;5069498;28;20616;-81
2023/06/10 05:41:48;;;;;;;14.32;10.68;;;;;;;19.96;91.22;94433.22;5070862;28;20224;-81
2023/06/10 05:44:13;;;;;;;13.63;8.85;;;;;;;20.21;91.38;94455.47;5071199;28;21252;-81
2023/06/10 05:46:39;;;;;;;8.68;5.55;;;;;;;20.09;89.79;94426.44;5070730;28;20623;-81
2023/06/10 05:49:04;;;;;;;5.75;4.40;;;;;;;20.31;89.18;94450.84;5070824;28;20190;-81
2023/06/10 05:51:30;;;;;;;6.78;4.38;;;;;;;20.45;89.15;94459.03;5070855;28;20190;-81
2023/06/10 05:53:55;;;;;;;7.30;4.75;;;;;;;20.59;88.96;94464.50;5072062;28;20249;-81
2023/06/10 05:56:23;;;;;;;9.85;4.90;;;;;;;20.67;88.54;94459.31;5071772;28;20197;-81
2023/06/10 05:58:49;;;;;;;5.57;4.63;;;;;;;20.60;87.60;94429.44;5073308;28;20696;-81
2023/06/10 06:01:15;;;;;;;5.20;4.70;;;;;;;20.88;86.68;94473.31;5074441;28;20179;-81
2023/06/10 06:03:40;;;;;;;6.78;4.28;;;;;;;20.97;87.19;94471.59;5074493;28;20175;-81
2023/06/10 06:06:06;;;;;;;8.30;4.68;;;;;;;21.00;85.04;94462.22;5074371;28;20174;-81
2023/06/10 06:08:31;;;;;;;9.05;5.38;;;;;;;21.07;84.98;94474.16;5073246;28;20206;-81
2023/06/10 06:10:57;;;;;;;9.63;4.78;;;;;;;21.15;85.74;94467.38;5074439;28;20171;-83
2023/06/10 06:13:22;;;;;;;8.18;5.00;;;;;;;21.04;85.54;94437.25;5074152;28;20235;-82
2023/06/10 06:15:48;;;;;;;7.40;4.68;;;;;;;21.34;85.72;94473.59;5074204;28;20213;-81
2023/06/10 06:18:13;;;;;;;8.45;4.43;;;;;;;21.23;84.88;94442.66;5074249;28;20167;-84
2023/06/10 06:20:38;;;;;;;6.90;4.90;;;;;;;21.23;84.31;94431.97;5074090;28;20178;-84
2023/06/10 06:23:04;;;;;;;8.75;4.68;;;;;;;20.73;83.44;94344.25;5074188;28;20182;-84
2023/06/10 06:25:29;;;;;;;6.97;4.63;;;;;;;21.34;83.89;94432.63;5073377;28;20173;-84
2023/06/10 06:27:55;;;;;;;7.13;5.18;;;;;;;21.69;84.49;94477.69;5075071;28;20181;-83
2023/06/10 06:30:20;;;;;;;15.82;4.78;;;;;;;21.78;83.66;94486.69;5074597;28;20213;-84
2023/06/10 06:32:46;;;;;;;8.40;4.90;;;;;;;21.65;82.97;94449.06;5074801;28;20216;-84
2023/06/10 06:35:11;;;;;;;9.23;5.20;;;;;;;21.66;83.35;94431.91;5074604;28;20166;-84
2023/06/10 06:37:36;;;;;;;7.85;4.82;;;;;;;21.70;82.37;94435.63;5074824;28;20159;-85
2023/06/10 06:40:03;;;;;;;5.35;4.65;;;;;;;21.76;82.06;94434.44;5075341;28;20645;-85
2023/06/10 06:42:32;;;;;;;10.43;5.10;;;;;;;22.05;81.53;94467.28;5073809;28;20178;-82
2023/06/10 06:45:01;;;;;;;7.15;5.95;;;;;;;21.81;81.92;94429.00;5077008;28;20166;-83
2023/06/10 06:47:30;;;;;;;9.60;4.97;;;;;;;21.84;81.21;94428.44;5077139;28;20266;-83
2023/06/10 06:49:56;;;;;;;15.02;4.43;;;;;;;21.53;81.76;94382.56;5078720;28;20567;-84
2023/06/10 06:52:24;;;;;;;8.88;4.53;;;;;;;21.87;82.08;94425.19;5077131;28;20256;-85
2023/06/10 06:54:50;;;;;;;5.47;4.18;;;;;;;21.83;81.39;94413.44;5076813;28;20190;-85
2023/06/10 06:57:15;;;;;;;11.82;4.75;;;;;;;21.93;80.38;94429.38;5076086;28;20650;-81
2023/06/10 06:59:41;;;;;;;8.63;5.47;;;;;;;22.22;80.75;94464.06;5073982;28;20214;-81
2023/06/10 07:02:09;;;;;;;9.50;4.10;;;;;;;22.25;81.84;94451.94;5074739;28;20246;-82
2023/06/10 07:04:35;;;;;;;9.95;4.70;;;;;;;22.39;79.02;94464.31;5074120;28;20250;-80
2023/06/10 07:07:01;;;;;;;4.90;4.15;;;;;;;22.34;79.07;94450.19;5075410;28;20257;-79
2023/06/10 07:09:28;;;;;;;9.60;4.38;;;;;;;22.14;78.59;94403.84;5073524;28;20225;-79
2023/06/10 07:11:53;;;;;;;6.07;3.80;;;;;;;22.33;77.07;94457.44;5073618;28;20166;-80
2023/06/10 07:14:18;;;;;;;5.93;3.83;;;;;;;21.99;78.89;94412.13;5072722;28;20178;-85
2023/06/10 07:16:45;;;;;;;6.00;3.53;;;;;;;22.44;79.88;94433.91;5073164;28;20190;-80
2023/06/10 07:19:11;;;;;;;5.43;3.92;;;;;;;22.83;78.90;94452.31;5071724;28;20170;-81
2023/06/10 07:21:37;;;;;;;8.48;4.15;;;;;;;22.87;76.21;94437.19;5073035;28;20733;-81
2023/06/10 07:24:03;;;;;;;4.07;3.55;;;;;;;23.21;75.26;94444.84;5073068;28;20190;-81
2023/06/10 07:26:28;;;;;;;10.55;3.67;;;;;;;23.54;74.94;94443.63;5072349;28;20178;-80
2023/06/10 07:28:54;;;;;;;5.20;3.65;;;;;;;23.95;73.24;94445.41;5072750;28;20206;-80
2023/06/10 07:31:19;;;;;;;3.78;2.95;;;;;;;24.07;67.16;94437.59;5072686;28;20170;-81
2023/06/10 07:33:46;;;;;;;4.10;3.50;;;;;;;24.39;67.22;94448.13;5073056;28;20173;-80
2023/06/10 07:36:12;;;;;;;5.13;3.22;;;;;;;24.43;64.88;94461.75;5072483;28;20205;-80
2023/06/10 07:38:37;;;;;;;3.72;3.05;;;;;;;24.39;63.61;94453.50;5072503;28;20186;-78
2023/06/10 07:41:03;;;;;;;7.63;3.22;;;;;;;24.50;65.13;94458.63;5071287;28;20170;-79
2023/06/10 07:43:28;;;;;;;6.70;3.70;;;;;;;24.31;66.75;94416.56;5071918;28;20181;-80
2023/06/10 07:45:54;;;;;;;4.90;3.15;;;;;;;24.54;65.64;94414.66;5072485;28;20231;-79
2023/06/10 07:48:19;;;;;;;5.45;2.95;;;;;;;25.26;65.91;94460.13;5070879;28;20181;-79
2023/06/10 07:50:45;;;;;;;5.22;3.15;;;;;;;25.83;62.90;94438.53;5072087;28;20178;-79
2023/06/10 07:53:10;;;;;;;5.53;3.42;;;;;;;26.19;57.71;94443.63;5072355;28;20248;-79
2023/06/10 07:55:35;;;;;;;3.47;3.17;;;;;;;26.00;59.72;94429.66;5071944;28;20213;-79
2023/06/10 07:58:01;;;;;;;4.47;3.50;;;;;;;26.27;60.24;94432.84;5071856;28;20269;-80
2023/06/10 08:00:26;;;;;;;7.10;3.70;;;;;;;26.66;59.97;94437.19;5071923;28;20222;-78
2023/06/10 08:02:52;;;;;;;7.43;3.63;;;;;;;26.94;57.85;94450.34;5070542;28;20178;-79
2023/06/10 08:05:17;;;;;;;9.20;3.88;;;;;;;26.76;54.79;94436.06;5071690;28;20257;-78
2023/06/10 08:07:43;;;;;;;6.63;3.25;;;;;;;26.43;58.19;94408.84;5071995;28;20158;-80
2023/06/10 08:10:10;;;;;;;5.43;3.60;;;;;;;26.41;56.19;94432.66;5071968;28;20183;-81
2023/06/10 08:12:36;;;;;;;6.75;3.47;;;;;;;26.26;57.88;94441.25;5071868;28;20227;-81
2023/06/10 08:15:03;;;;;;;5.85;3.30;;;;;;;26.36;60.39;94440.13;5071241;28;20246;-80
2023/06/10 08:17:29;;;;;;;7.60;3.85;;;;;;;26.77;57.65;94426.84;5071166;28;20177;-80
2023/06/10 08:19:55;;;;;;;4.78;3.50;;;;;;;27.02;53.79;94419.78;5071219;28;20637;-80
2023/06/10 08:22:21;;;;;;;7.63;3.80;;;;;;;27.14;55.08;94419.91;5070134;28;20170;-80
2023/06/10 08:24:46;;;;;;;6.00;3.15;;;;;;;27.17;55.43;94430.03;5071503;28;20647;-80
2023/06/10 08:27:12;;;;;;;4.32;3.08;;;;;;;27.68;56.62;94430.88;5071305;28;20182;-80
2023/06/10 08:29:37;;;;;;;5.70;3.22;;;;;;;27.54;53.41;94409.50;5071322;28;20187;-80
2023/06/10 08:32:03;;;;;;;5.40;3.15;;;;;;;27.74;53.79;94392.50;5072079;28;20695;-89
2023/06/10 08:34:28;;;;;;;5.88;3.05;;;;;;;28.01;52.99;94415.53;5071238;28;20209;-81
2023/06/10 08:36:55;;;;;;;4.65;2.88;;;;;;;27.86;51.62;94377.44;5072109;28;20367;-82
2023/06/10 08:39:21;;;;;;;4.15;2.78;;;;;;;27.54;50.92;94378.97;5071507;28;20170;-80
2023/06/10 08:41:56;;;;;;;7.50;3.03;;;;;;;27.89;55.29;94409.25;5070411;28;20174;-84
2023/06/10 08:44:30;;;;;;;5.68;2.65;;;;;;;28.09;56.95;94398.44;5071576;28;20172;-78
2023/06/10 08:46:59;;;;;;;10.07;3.30;;;;;;;28.27;57.12;94418.06;5069562;28;20547;-80
2023/06/10 08:49:26;;;;;;;4.72;3.00;;;;;;;28.25;54.40;94400.53;5071660;28;20199;-81
2023/06/10 08:51:57;;;;;;;4.68;2.95;;;;;;;28.09;50.47;94408.47;5071418;28;20219;-80
2023/06/10 08:54:26;;;;;;;3.08;2.70;;;;;;;27.95;51.67;94386.28;5069746;28;20634;-81
2023/06/10 08:56:55;;;;;;;2.50;2.30;;;;;;;28.13;50.22;94401.25;5071375;28;20182;-83
2023/06/10 08:59:21;;;;;;;4.53;2.40;;;;;;;28.08;49.65;94409.59;5069944;28;20622;-82
2023/06/10 09:01:49;;;;;;;2.92;2.50;;;;;;;27.98;49.88;94402.66;5072193;28;20183;-81
2023/06/10 09:04:17;;;;;;;3.72;2.90;;;;;;;28.02;50.57;94403.56;5072086;28;20175;-81
2023/06/10 09:06:44;;;;;;;3.97;2.60;;;;;;;28.03;51.67;94398.94;5072007;28;20147;-81
2023/06/10 09:09:09;;;;;;;3.58;2.97;;;;;;;28.07;53.35;94399.88;5071057;28;20514;-80
2023/06/10 09:11:36;;;;;;;4.50;3.72;;;;;;;28.00;50.81;94386.88;5070482;28;20202;-79
2023/06/10 09:14:02;;;;;;;4.47;3.10;;;;;;;27.75;52.49;94377.06;5070799;28;20220;-81
2023/06/10 09:16:28;;;;;;;3.45;3.00;;;;;;;27.30;54.31;94371.47;5071081;28;20711;-81
2023/06/10 09:18:55;;;;;;;3.30;3.00;;;;;;;27.15;55.25;94382.84;5071147;28;20167;-81
2023/06/10 09:21:23;;;;;;;4.45;2.80;;;;;;;27.13;54.89;94371.56;5071421;28;20194;-79
2023/06/10 09:23:49;;;;;;;4.75;3.22;;;;;;;27.28;58.58;94377.19;5071600;28;20208;-78
2023/06/10 09:26:15;;;;;;;7.72;3.33;;;;;;;27.40;57.65;94380.00;5070943;28;20179;-79
2023/06/10 09:28:47;;;;;;;3.92;2.30;;;;;;;27.50;52.67;94369.91;5069620;28;20613;-78
2023/06/10 09:31:13;;;;;;;4.35;2.67;;;;;;;27.70;50.88;94379.97;5070999;28;20220;-78
2023/06/10 09:33:40;;;;;;;5.10;2.47;;;;;;;27.70;53.21;94377.25;5073339;28;20177;-80
2023/06/10 09:36:06;;;;;;;2.90;2.63;;;;;;;27.28;50.53;94379.09;5074991;28;20637;-78
2023/06/10 09:38:33;;;;;;;4.90;2.75;;;;;;;26.72;49.87;94364.13;5075519;28;20188;-83
2023/06/10 09:40:59;;;;;;;3.55;2.95;;;;;;;26.46;51.46;94375.00;5074893;28;20176;-82
2023/06/10 09:43:46;;;;;;;4.35;3.20;;;;;;;26.44;56.47;94366.44;5074798;28;20197;-80
2023/06/10 09:46:18;;;;;;;8.32;3.20;;;;;;;26.63;55.90;94364.94;5074886;28;20649;-81
2023/06/10 09:48:45;;;;;;;3.53;3.05;;;;;;;26.32;53.00;94342.00;5075186;28;20197;-81
2023/06/10 09:51:12;;;;;;;3.50;3.05;;;;;;;26.36;52.17;94359.16;5075025;28;20561;-82
2023/06/10 09:53:37;;;;;;;4.22;3.20;;;;;;;26.32;52.72;94360.91;5074897;28;20236;-81
2023/06/10 09:56:03;;;;;;;5.80;3.45;;;;;;;26.32;53.04;94358.19;5074716;28;20649;-80
2023/06/10 09:58:38;;;;;;;4.57;3.22;;;;;;;26.23;52.06;94342.00;5074387;28;20232;-80
2023/06/10 10:01:12;;;;;;;4.97;2.97;;;;;;;26.04;51.79;94304.56;5073212;28;20265;-81
2023/06/10 10:03:45;;;;;;;9.40;3.28;;;;;;;26.33;50.21;94349.00;5072826;28;20173;-81
2023/06/10 10:06:11;;;;;;;4.78;2.83;;;;;;;25.98;51.80;94313.16;5073913;28;20181;-81
2023/06/10 10:08:36;;;;;;;9.25;3.22;;;;;;;26.05;51.96;94343.13;5074702;28;20224;-81
2023/06/10 10:11:02;;;;;;;3.45;2.80;;;;;;;26.04;51.40;94346.94;5074573;28;20193;-81
2023/06/10 10:13:31;;;;;;;2.85;2.55;;;;;;;25.81;52.08;94319.38;5074703;28;20184;-81
2023/06/10 10:16:01;;;;;;;3.30;2.67;;;;;;;25.84;51.47;94327.63;5074802;28;20208;-81
2023/06/10 10:18:30;;;;;;;3.63;2.78;;;;;;;25.91;50.41;94321.75;5074406;28;20196;-81
2023/06/10 10:21:00;;;;;;;4.43;2.33;;;;;;;26.06;51.79;94342.81;5074783;28;20212;-81
2023/06/10 10:23:34;;;;;;;4.85;2.70;;;;;;;25.90;50.17;94325.56;5074366;28;20191;-81
2023/06/10 10:26:05;;;;;;;3.92;2.75;;;;;;;26.02;55.13;94320.31;5075017;28;20158;-81
2023/06/10 10:28:41;;;;;;;3.17;2.80;;;;;;;26.07;52.49;94317.44;5073873;28;20234;-81
2023/06/10 10:31:12;;;;;;;7.75;2.75;;;;;;;26.25;52.51;94316.28;5074395;28;20162;-81
2023/06/10 10:33:48;;;;;;;3.25;2.50;;;;;;;26.37;55.74;94320.25;5074314;28;20685;-81
2023/06/10 10:36:16;;;;;;;2.53;2.00;;;;;;;26.25;52.56;94305.47;5073957;28;20165;-82
2023/06/10 10:38:45;;;;;;;4.82;2.53;;;;;;;26.00;52.56;94292.06;5073734;28;20174;-81
2023/06/10 10:41:11;;;;;;;3.03;2.28;;;;;;;26.20;49.76;94321.06;5074625;28;20165;-81
2023/06/10 10:43:37;;;;;;;3.53;2.65;;;;;;;26.09;49.03;94319.81;5073723;28;20182;-81
2023/06/10 10:46:12;;;;;;;2.45;2.25;;;;;;;26.08;51.63;94310.94;5073946;28;20656;-82
2023/06/10 10:48:39;;;;;;;4.07;2.38;;;;;;;26.21;51.75;94318.00;5074626;28;20174;-81
2023/06/10 10:51:05;;;;;;;2.47;2.28;;;;;;;26.19;49.06;94300.59;5072910;28;20673;-82
2023/06/10 10:53:30;;;;;;;4.13;2.80;;;;;;;26.08;51.53;94310.13;5073769;28;20178;-81
2023/06/10 10:56:06;;;;;;;3.53;2.30;;;;;;;25.84;50.93;94276.38;5074194;28;20617;-81
2023/06/10 10:58:32;;;;;;;2.78;2.30;;;;;;;26.25;52.64;94299.28;5056413;28;20954;-81
2023/06/10 11:00:58;;;;;;;3.65;2.65;;;;;;;26.52;48.77;94306.19;5073784;28;20175;-82
2023/06/10 11:03:29;;;;;;;3.50;2.35;;;;;;;26.52;46.46;94303.50;5073633;28;20212;-82
2023/06/10 11:05:57;;;;;;;2.70;2.47;;;;;;;26.20;46.01;94297.56;5073616;28;20166;-81
2023/06/10 11:08:43;;;;;;;2.20;2.00;;;;;;;26.12;47.07;94301.06;5073422;28;20231;-81
2023/06/10 11:11:27;;;;;;;4.53;2.40;;;;;;;26.20;48.58;94288.69;5069547;28;20186;-82
2023/06/10 11:14:02;;;;;;;3.08;2.50;;;;;;;26.39;47.85;94288.28;5072036;28;20189;-82
2023/06/10 11:16:28;;;;;;;3.25;2.15;;;;;;;26.61;50.57;94286.16;5070176;28;20170;-82
2023/06/10 11:18:55;;;;;;;4.45;3.00;;;;;;;26.63;51.63;94277.72;5072191;28;20185;-81
2023/06/10 11:21:23;;;;;;;3.17;2.50;;;;;;;26.72;52.96;94286.56;5073306;28;20534;-81
2023/06/10 11:23:50;;;;;;;3.60;2.22;;;;;;;26.47;47.94;94246.97;5073196;28;20179;-84
2023/06/10 11:26:34;;;;;;;2.90;2.60;;;;;;;26.64;48.17;94274.69;5072986;28;20174;-85
2023/06/10 11:28:59;;;;;;;3.35;2.47;;;;;;;26.55;48.79;94270.47;5067743;28;20966;-83
2023/06/10 11:31:30;;;;;;;5.05;3.85;;;;;;;26.44;49.79;94267.34;5066706;28;20191;-83